Time;durP1;ratioP1;P1;durP2;ratioP2;P2;SDS_P1;SDS_P2;PMS_P1;PMS_P2;Temp;Humidity;BMP_temperature;BMP_pressure;BME280_temperature;BME280_humidity;BME280_pressure;Samples;Min_cycle;Max_cycle;Signal;HPM_P1;HPM_P2
2023/04/19 00:00:14;;;;;;;1.63;1.40;;;;;;;;;;5110928;27;93282;-60
2023/04/19 00:02:43;;;;;;;1.37;1.27;;;;;;;;;;5107509;27;93413;-60
2023/04/19 00:05:14;;;;;;;2.30;1.77;;;;;;;;;;5122686;27;94093;-59
2023/04/19 00:07:42;;;;;;;5.00;1.53;;;;;;;;;;5133902;27;94297;-59
2023/04/19 00:10:12;;;;;;;1.17;0.90;;;;;;;;;;5113817;27;92077;-59
2023/04/19 00:12:40;;;;;;;3.53;1.90;;;;;;;;;;5112645;27;91369;-59
2023/04/19 00:15:09;;;;;;;1.77;1.47;;;;;;;;;;5108959;27;94109;-59
2023/04/19 00:17:37;;;;;;;2.73;1.33;;;;;;;;;;5107933;27;93797;-59
2023/04/19 00:20:07;;;;;;;3.70;1.73;;;;;;;;;;5113655;27;93095;-60
2023/04/19 00:22:35;;;;;;;2.07;1.30;;;;;;;;;;5114267;27;92167;-59
2023/04/19 00:25:03;;;;;;;3.00;1.80;;;;;;;;;;5106294;27;94167;-60
2023/04/19 00:27:33;;;;;;;2.07;1.53;;;;;;;;;;5107179;27;93921;-59
2023/04/19 00:30:01;;;;;;;4.00;1.40;;;;;;;;;;5087557;27;92116;-59
2023/04/19 00:32:29;;;;;;;1.80;1.13;;;;;;;;;;5108169;27;92003;-59
2023/04/19 00:34:58;;;;;;;1.40;1.07;;;;;;;;;;5106644;27;94210;-60
2023/04/19 00:37:26;;;;;;;1.50;1.40;;;;;;;;;;5111777;27;93837;-60
2023/04/19 00:39:54;;;;;;;2.53;1.30;;;;;;;;;;5115059;27;92745;-60
2023/04/19 00:42:23;;;;;;;2.60;1.27;;;;;;;;;;5112026;27;92098;-60
2023/04/19 00:44:52;;;;;;;1.13;1.03;;;;;;;;;;5107546;27;95000;-60
2023/04/19 00:47:21;;;;;;;2.47;1.70;;;;;;;;;;5106724;27;95008;-60
2023/04/19 00:49:49;;;;;;;2.00;1.40;;;;;;;;;;5113202;27;93628;-60
2023/04/19 00:52:17;;;;;;;1.93;1.43;;;;;;;;;;5108800;27;92241;-59
2023/04/19 00:54:45;;;;;;;1.07;0.97;;;;;;;;;;5107446;27;94155;-59
2023/04/19 00:57:14;;;;;;;2.93;1.30;;;;;;;;;;5109724;27;94264;-59
2023/04/19 00:59:42;;;;;;;1.23;1.13;;;;;;;;;;5109330;27;92039;-61
2023/04/19 01:02:12;;;;;;;1.63;0.97;;;;;;;;;;5108483;27;91380;-61
2023/04/19 01:04:40;;;;;;;1.63;1.30;;;;;;;;;;5104746;27;94151;-59
2023/04/19 01:07:09;;;;;;;1.57;1.40;;;;;;;;;;5111497;27;93850;-61
2023/04/19 01:09:40;;;;;;;1.20;1.10;;;;;;;;;;5105053;27;93038;-61
2023/04/19 01:12:08;;;;;;;1.80;1.20;;;;;;;;;;5103614;27;92085;-61
2023/04/19 01:14:37;;;;;;;2.10;1.50;;;;;;;;;;5108443;27;94038;-61
2023/04/19 01:17:06;;;;;;;1.00;1.00;;;;;;;;;;5109231;27;93926;-59
2023/04/19 01:19:37;;;;;;;3.00;1.40;;;;;;;;;;5104950;27;92677;-59
2023/04/19 01:22:05;;;;;;;1.20;1.10;;;;;;;;;;5104531;27;92417;-59
2023/04/19 01:24:35;;;;;;;1.30;1.20;;;;;;;;;;5108364;27;93016;-59
2023/04/19 01:27:03;;;;;;;2.80;1.30;;;;;;;;;;5111323;27;93846;-59
2023/04/19 01:29:31;;;;;;;1.10;1.00;;;;;;;;;;5109499;27;92003;-59
2023/04/19 01:32:00;;;;;;;1.60;0.83;;;;;;;;;;5105560;27;92071;-59
2023/04/19 01:34:28;;;;;;;1.40;1.23;;;;;;;;;;5111280;27;94692;-59
2023/04/19 01:36:57;;;;;;;1.50;1.20;;;;;;;;;;5104767;27;94863;-59
2023/04/19 01:39:26;;;;;;;1.67;1.10;;;;;;;;;;5111701;27;93640;-59
2023/04/19 01:41:55;;;;;;;2.23;1.30;;;;;;;;;;5119055;27;92019;-59
2023/04/19 01:44:24;;;;;;;1.43;1.07;;;;;;;;;;5110538;27;94241;-59
2023/04/19 01:46:52;;;;;;;4.47;2.07;;;;;;;;;;5113091;27;93763;-59
2023/04/19 01:49:20;;;;;;;1.00;0.90;;;;;;;;;;5116798;27;92494;-59
2023/04/19 01:51:49;;;;;;;1.23;0.90;;;;;;;;;;5115722;27;91388;-59
2023/04/19 01:54:17;;;;;;;2.37;1.57;;;;;;;;;;5118948;27;94205;-60
2023/04/19 01:56:46;;;;;;;1.23;0.90;;;;;;;;;;5114468;27;93856;-59
2023/04/19 01:59:15;;;;;;;1.73;1.20;;;;;;;;;;5115853;27;93340;-59
2023/04/19 02:01:43;;;;;;;2.97;1.17;;;;;;;;;;5116637;27;92047;-59
2023/04/19 02:04:12;;;;;;;1.80;1.47;;;;;;;;;;5109933;27;94669;-59
2023/04/19 02:06:40;;;;;;;2.13;1.53;;;;;;;;;;5117079;27;93856;-61
2023/04/19 02:09:09;;;;;;;1.13;1.07;;;;;;;;;;5115634;27;92094;-59
2023/04/19 02:11:37;;;;;;;2.93;1.47;;;;;;;;;;5115210;27;93238;-59
2023/04/19 02:14:05;;;;;;;1.90;1.33;;;;;;;;;;5113762;27;94295;-59
2023/04/19 02:16:35;;;;;;;3.57;1.07;;;;;;;;;;5111223;27;93783;-59
2023/04/19 02:19:04;;;;;;;4.50;1.50;;;;;;;;;;5114595;27;93507;-59
2023/04/19 02:21:32;;;;;;;2.27;1.17;;;;;;;;;;5108889;27;93281;-59
2023/04/19 02:24:01;;;;;;;2.13;1.10;;;;;;;;;;5114283;27;95099;-59
2023/04/19 02:26:29;;;;;;;1.10;1.00;;;;;;;;;;5113798;27;94817;-59
2023/04/19 02:28:57;;;;;;;1.40;1.30;;;;;;;;;;5117407;27;92165;-59
2023/04/19 02:31:25;;;;;;;1.90;1.70;;;;;;;;;;5109892;27;92045;-61
2023/04/19 02:33:55;;;;;;;3.37;1.70;;;;;;;;;;5116174;27;94329;-59
2023/04/19 02:36:23;;;;;;;2.33;1.77;;;;;;;;;;5114725;27;93144;-59
2023/04/19 02:38:53;;;;;;;1.37;1.23;;;;;;;;;;5113036;27;92125;-59
2023/04/19 02:41:21;;;;;;;2.43;1.40;;;;;;;;;;5112063;27;92711;-59
2023/04/19 02:43:50;;;;;;;1.83;1.37;;;;;;;;;;5113411;27;94197;-59
2023/04/19 02:46:18;;;;;;;1.37;1.27;;;;;;;;;;5117022;27;93661;-59
2023/04/19 02:48:46;;;;;;;2.40;1.30;;;;;;;;;;5115258;27;92832;-60
2023/04/19 02:51:17;;;;;;;2.17;1.20;;;;;;;;;;5113171;27;92188;-60
2023/04/19 02:53:45;;;;;;;1.70;1.40;;;;;;;;;;5109282;27;94308;-59
2023/04/19 02:56:14;;;;;;;1.80;1.53;;;;;;;;;;5107314;27;93862;-59
2023/04/19 02:58:42;;;;;;;2.37;1.50;;;;;;;;;;5109179;27;93489;-59
2023/04/19 03:01:10;;;;;;;2.07;1.80;;;;;;;;;;5108570;27;93081;-59
2023/04/19 03:03:39;;;;;;;1.23;1.13;;;;;;;;;;5110750;27;94203;-59
2023/04/19 03:06:08;;;;;;;1.90;1.27;;;;;;;;;;5110417;27;94002;-59
2023/04/19 03:08:37;;;;;;;1.20;0.97;;;;;;;;;;5109894;27;93660;-59
2023/04/19 03:11:06;;;;;;;1.67;1.10;;;;;;;;;;5112615;27;92844;-59
2023/04/19 03:13:34;;;;;;;1.30;0.97;;;;;;;;;;5113916;27;95242;-59
2023/04/19 03:16:02;;;;;;;1.50;1.37;;;;;;;;;;5106691;27;95026;-59
2023/04/19 03:18:31;;;;;;;1.83;1.60;;;;;;;;;;5110047;27;92086;-59
2023/04/19 03:20:59;;;;;;;1.70;1.30;;;;;;;;;;5114945;27;94208;-59
2023/04/19 03:23:27;;;;;;;1.37;1.27;;;;;;;;;;5108406;27;94493;-59
2023/04/19 03:25:57;;;;;;;1.70;1.10;;;;;;;;;;5106863;27;93910;-59
2023/04/19 03:28:25;;;;;;;1.47;1.37;;;;;;;;;;5111141;27;92113;-59
2023/04/19 03:30:53;;;;;;;1.20;1.10;;;;;;;;;;5100128;27;91336;-59
2023/04/19 03:33:22;;;;;;;1.50;1.40;;;;;;;;;;5102351;27;93653;-59
2023/04/19 03:35:50;;;;;;;2.13;1.23;;;;;;;;;;5102847;27;93985;-59
2023/04/19 03:38:18;;;;;;;1.50;1.37;;;;;;;;;;5120964;27;92858;-59
2023/04/19 03:40:46;;;;;;;1.00;0.93;;;;;;;;;;5120603;27;92008;-61
2023/04/19 03:43:16;;;;;;;2.17;1.10;;;;;;;;;;5105666;27;94083;-61
2023/04/19 03:45:44;;;;;;;1.37;1.27;;;;;;;;;;5102001;27;93864;-61
2023/04/19 03:48:13;;;;;;;1.00;1.00;;;;;;;;;;5105868;27;93702;-61
2023/04/19 03:50:41;;;;;;;1.40;1.00;;;;;;;;;;5120544;27;92708;-61
2023/04/19 03:53:09;;;;;;;1.10;0.77;;;;;;;;;;5118546;27;93901;-61
2023/04/19 03:55:37;;;;;;;3.43;1.40;;;;;;;;;;5102324;27;93857;-61
2023/04/19 03:58:06;;;;;;;1.13;1.03;;;;;;;;;;5102375;27;93961;-61
2023/04/19 04:00:35;;;;;;;1.63;1.47;;;;;;;;;;5102124;27;92227;-61
2023/04/19 04:03:04;;;;;;;1.40;1.30;;;;;;;;;;5103528;27;95159;-61
2023/04/19 04:05:32;;;;;;;1.57;1.23;;;;;;;;;;5101433;27;94804;-61
2023/04/19 04:08:01;;;;;;;1.50;1.30;;;;;;;;;;5099477;27;92102;-61
2023/04/19 04:10:29;;;;;;;1.77;0.93;;;;;;;;;;5102044;27;91970;-61
2023/04/19 04:12:57;;;;;;;1.10;1.03;;;;;;;;;;5102530;27;94141;-61
2023/04/19 04:15:25;;;;;;;1.63;1.10;;;;;;;;;;5107957;27;93929;-61
2023/04/19 04:17:55;;;;;;;1.53;1.30;;;;;;;;;;5107634;27;92187;-61
2023/04/19 04:20:23;;;;;;;1.37;1.10;;;;;;;;;;5100875;27;92731;-61
2023/04/19 04:22:51;;;;;;;1.03;0.93;;;;;;;;;;5110763;27;94267;-61
2023/04/19 04:25:20;;;;;;;1.93;1.30;;;;;;;;;;5101416;27;93806;-61
2023/04/19 04:27:51;;;;;;;2.30;1.07;;;;;;;;;;5101898;27;93068;-61
2023/04/19 04:30:19;;;;;;;0.87;0.87;;;;;;;;;;5109178;27;92191;-61
2023/04/19 04:32:50;;;;;;;1.07;0.90;;;;;;;;;;5102866;27;94181;-61
2023/04/19 04:35:20;;;;;;;0.70;0.70;;;;;;;;;;5095366;27;93763;-61
2023/04/19 04:37:48;;;;;;;1.83;0.93;;;;;;;;;;5091307;27;93495;-61
2023/04/19 04:40:16;;;;;;;1.50;1.27;;;;;;;;;;5085064;27;92329;-61
2023/04/19 04:42:45;;;;;;;1.73;1.00;;;;;;;;;;5113525;27;93710;-61
2023/04/19 04:45:16;;;;;;;1.80;1.30;;;;;;;;;;5092668;27;92875;-61
2023/04/19 04:47:45;;;;;;;1.33;1.10;;;;;;;;;;5078911;27;93809;-61
2023/04/19 04:50:14;;;;;;;1.70;1.00;;;;;;;;;;5080009;27;93748;-61
2023/04/19 04:52:44;;;;;;;2.07;1.23;;;;;;;;;;5089794;27;95143;-61
2023/04/19 04:55:12;;;;;;;1.20;1.10;;;;;;;;;;5101658;27;94823;-61
2023/04/19 04:57:40;;;;;;;0.97;0.80;;;;;;;;;;5099954;27;92061;-61
2023/04/19 05:00:09;;;;;;;2.00;1.03;;;;;;;;;;5100730;27;92037;-61
2023/04/19 05:02:37;;;;;;;1.67;1.23;;;;;;;;;;5099993;27;94207;-61
2023/04/19 05:05:06;;;;;;;2.33;1.10;;;;;;;;;;5083054;27;94057;-61
2023/04/19 05:07:34;;;;;;;0.77;0.77;;;;;;;;;;5090593;27;93308;-61
2023/04/19 05:10:04;;;;;;;0.80;0.80;;;;;;;;;;5081412;27;92847;-62
2023/04/19 05:12:33;;;;;;;0.80;0.80;;;;;;;;;;5076468;27;95759;-59
2023/04/19 05:15:01;;;;;;;1.77;0.90;;;;;;;;;;5078876;27;94362;-59
2023/04/19 05:17:29;;;;;;;1.20;1.00;;;;;;;;;;5098294;27;93300;-60
2023/04/19 05:19:57;;;;;;;1.37;1.07;;;;;;;;;;5110494;27;92212;-59
2023/04/19 05:22:26;;;;;;;1.33;1.03;;;;;;;;;;5094532;27;93934;-59
2023/04/19 05:24:54;;;;;;;1.30;1.20;;;;;;;;;;5106099;27;93738;-59
2023/04/19 05:27:24;;;;;;;0.90;0.90;;;;;;;;;;5107124;27;92261;-59
2023/04/19 05:29:53;;;;;;;2.00;1.40;;;;;;;;;;5097386;27;92281;-60
2023/04/19 05:32:21;;;;;;;1.13;0.87;;;;;;;;;;5098968;27;94255;-59
2023/04/19 05:34:49;;;;;;;1.53;1.27;;;;;;;;;;5108498;27;93830;-59
2023/04/19 05:37:17;;;;;;;1.27;1.17;;;;;;;;;;5102435;27;91880;-59
2023/04/19 05:39:46;;;;;;;1.63;0.80;;;;;;;;;;5109507;27;92086;-59
2023/04/19 05:42:14;;;;;;;0.63;0.63;;;;;;;;;;5097967;27;95235;-59
2023/04/19 05:44:44;;;;;;;1.17;1.07;;;;;;;;;;5099203;27;93689;-59
2023/04/19 05:47:12;;;;;;;1.80;1.13;;;;;;;;;;5116328;27;92231;-60
2023/04/19 05:49:40;;;;;;;0.93;0.83;;;;;;;;;;5111983;27;93495;-60
2023/04/19 05:52:10;;;;;;;1.57;1.17;;;;;;;;;;5094573;27;94101;-59
2023/04/19 05:54:39;;;;;;;0.60;0.60;;;;;;;;;;5093331;27;93811;-60
2023/04/19 05:57:07;;;;;;;0.80;0.80;;;;;;;;;;5100506;27;92507;-59
2023/04/19 05:59:35;;;;;;;1.53;1.07;;;;;;;;;;5116931;27;91331;-60
2023/04/19 06:02:05;;;;;;;1.17;0.93;;;;;;;;;;5115297;27;93959;-61
2023/04/19 06:04:33;;;;;;;1.00;1.00;;;;;;;;;;5115507;27;92745;-60
2023/04/19 06:07:02;;;;;;;1.43;1.00;;;;;;;;;;5112893;27;93611;-60
2023/04/19 06:09:33;;;;;;;1.13;1.03;;;;;;;;;;5119945;27;92182;-60
2023/04/19 06:12:01;;;;;;;1.17;0.90;;;;;;;;;;5106505;27;94054;-62
2023/04/19 06:14:29;;;;;;;1.33;1.10;;;;;;;;;;5098635;27;94225;-60
2023/04/19 06:16:58;;;;;;;2.73;1.30;;;;;;;;;;5094943;27;94078;-61
2023/04/19 06:19:27;;;;;;;3.97;1.33;;;;;;;;;;5095699;27;92043;-61
2023/04/19 06:21:56;;;;;;;0.83;0.80;;;;;;;;;;5093891;27;94177;-61
2023/04/19 06:24:24;;;;;;;1.17;1.07;;;;;;;;;;5099981;27;93573;-63
2023/04/19 06:26:52;;;;;;;1.67;0.97;;;;;;;;;;5110610;27;92244;-61
2023/04/19 06:29:22;;;;;;;1.67;1.00;;;;;;;;;;5084995;27;92113;-61
2023/04/19 06:31:50;;;;;;;1.33;0.80;;;;;;;;;;5092510;27;94834;-61
2023/04/19 06:34:19;;;;;;;1.47;0.80;;;;;;;;;;5102969;27;95010;-61
2023/04/19 06:36:49;;;;;;;2.13;0.97;;;;;;;;;;5099441;27;91891;-62
2023/04/19 06:39:17;;;;;;;1.00;0.90;;;;;;;;;;5098824;27;92068;-61
2023/04/19 06:41:45;;;;;;;1.60;0.93;;;;;;;;;;5106937;27;94042;-61
2023/04/19 06:44:13;;;;;;;1.23;1.10;;;;;;;;;;5082050;27;94288;-61
2023/04/19 06:46:42;;;;;;;1.67;0.67;;;;;;;;;;5100492;27;91986;-61
2023/04/19 06:49:11;;;;;;;1.23;0.80;;;;;;;;;;5090418;27;91993;-61
2023/04/19 06:51:39;;;;;;;1.47;1.30;;;;;;;;;;5081676;27;94347;-61
2023/04/19 06:54:09;;;;;;;1.13;0.80;;;;;;;;;;5099791;27;93823;-61
2023/04/19 06:56:40;;;;;;;1.80;1.20;;;;;;;;;;5101000;27;92957;-61
2023/04/19 06:59:09;;;;;;;0.90;0.90;;;;;;;;;;5085478;27;93767;-61
2023/04/19 07:01:37;;;;;;;2.03;1.10;;;;;;;;;;5099053;27;94118;-61
2023/04/19 07:04:06;;;;;;;0.90;0.83;;;;;;;;;;5099317;27;94105;-62
2023/04/19 07:06:34;;;;;;;1.37;1.17;;;;;;;;;;5104839;27;92155;-61
2023/04/19 07:09:03;;;;;;;1.80;1.10;;;;;;;;;;5098838;27;91987;-61
2023/04/19 07:11:32;;;;;;;3.77;1.10;;;;;;;;;;5085375;27;94084;-61
2023/04/19 07:14:01;;;;;;;1.70;1.27;;;;;;;;;;5091974;27;94119;-61
2023/04/19 07:16:29;;;;;;;0.63;0.60;;;;;;;;;;5106738;27;93402;-61
2023/04/19 07:18:58;;;;;;;1.07;0.90;;;;;;;;;;5083195;27;93894;-61
2023/04/19 07:21:31;;;;;;;0.70;0.70;;;;;;;;;;5086066;27;94139;-61
2023/04/19 07:23:59;;;;;;;1.40;1.23;;;;;;;;;;5107498;27;93741;-61
2023/04/19 07:26:28;;;;;;;1.13;0.97;;;;;;;;;;5096337;27;91929;-61
2023/04/19 07:28:57;;;;;;;1.63;1.00;;;;;;;;;;5101304;27;92965;-61
2023/04/19 07:31:26;;;;;;;0.73;0.63;;;;;;;;;;5080253;27;94106;-62
2023/04/19 07:33:54;;;;;;;1.50;1.00;;;;;;;;;;5113013;27;93993;-61
2023/04/19 07:36:22;;;;;;;1.23;0.80;;;;;;;;;;5102009;27;92051;-61
2023/04/19 07:38:51;;;;;;;1.20;0.90;;;;;;;;;;5114198;27;93041;-61
2023/04/19 07:41:19;;;;;;;1.33;1.23;;;;;;;;;;5120738;27;94717;-61
2023/04/19 07:43:47;;;;;;;0.80;0.70;;;;;;;;;;5119859;27;93923;-61
2023/04/19 07:46:17;;;;;;;1.73;1.30;;;;;;;;;;5122546;27;92961;-61
2023/04/19 07:48:46;;;;;;;1.27;0.90;;;;;;;;;;5105237;27;92105;-61
2023/04/19 07:51:15;;;;;;;1.80;1.20;;;;;;;;;;5111935;27;94384;-61
2023/04/19 07:53:43;;;;;;;2.33;1.03;;;;;;;;;;5118115;27;94129;-61
2023/04/19 07:56:13;;;;;;;0.93;0.77;;;;;;;;;;5123860;27;92008;-62
2023/04/19 07:58:41;;;;;;;1.23;1.13;;;;;;;;;;5121302;27;92340;-62
2023/04/19 08:01:11;;;;;;;0.63;0.60;;;;;;;;;;5119507;27;94073;-61
2023/04/19 08:03:40;;;;;;;1.13;0.90;;;;;;;;;;5111638;27;94108;-60
2023/04/19 08:06:09;;;;;;;2.07;1.03;;;;;;;;;;5122463;27;93500;-59
2023/04/19 08:08:37;;;;;;;1.10;1.00;;;;;;;;;;5121323;27;92123;-61
2023/04/19 08:11:06;;;;;;;0.60;0.60;;;;;;;;;;5119350;27;95148;-60
2023/04/19 08:13:34;;;;;;;3.83;1.17;;;;;;;;;;5101876;27;94866;-60
2023/04/19 08:16:03;;;;;;;0.80;0.80;;;;;;;;;;5101917;27;92189;-60
2023/04/19 08:18:52;;;;;;;1.57;1.10;;;;;;;;;;5099879;27;93455;-60
2023/04/19 08:21:20;;;;;;;4.93;1.23;;;;;;;;;;5119140;27;94127;-59
2023/04/19 08:23:58;;;;;;;0.97;0.87;;;;;;;;;;5103534;27;94035;-59
2023/04/19 08:26:26;;;;;;;1.07;1.03;;;;;;;;;;5109724;27;93398;-59
2023/04/19 08:28:54;;;;;;;0.73;0.73;;;;;;;;;;5121403;27;91268;-59
2023/04/19 08:31:23;;;;;;;1.83;0.87;;;;;;;;;;5121975;27;94135;-59
2023/04/19 08:33:52;;;;;;;0.87;0.80;;;;;;;;;;5122566;27;93888;-59
2023/04/19 08:36:21;;;;;;;1.40;0.80;;;;;;;;;;5121907;27;92866;-59
2023/04/19 08:39:06;;;;;;;1.63;1.07;;;;;;;;;;5122698;27;91767;-59
2023/04/19 08:41:45;;;;;;;0.90;0.80;;;;;;;;;;5121618;27;94307;-59
2023/04/19 08:44:17;;;;;;;1.10;0.90;;;;;;;;;;5121789;27;93521;-59
2023/04/19 08:47:03;;;;;;;1.50;0.97;;;;;;;;;;5121741;27;92092;-59
2023/04/19 08:49:33;;;;;;;0.80;0.80;;;;;;;;;;5121096;27;92075;-59
2023/04/19 08:52:01;;;;;;;0.97;0.80;;;;;;;;;;5121920;27;94335;-59
2023/04/19 08:54:30;;;;;;;1.37;0.73;;;;;;;;;;5122361;27;92848;-59
2023/04/19 08:56:58;;;;;;;0.90;0.90;;;;;;;;;;5122410;27;91797;-59
2023/04/19 08:59:27;;;;;;;2.40;0.90;;;;;;;;;;5122491;27;92343;-60
2023/04/19 09:01:58;;;;;;;1.33;1.23;;;;;;;;;;5120978;27;94930;-59
2023/04/19 09:04:26;;;;;;;0.70;0.70;;;;;;;;;;5120910;27;94675;-60
2023/04/19 09:07:07;;;;;;;1.00;0.70;;;;;;;;;;5120674;27;92077;-59
2023/04/19 09:09:35;;;;;;;0.93;0.83;;;;;;;;;;5121856;27;92045;-59
2023/04/19 09:12:18;;;;;;;1.97;0.77;;;;;;;;;;5121407;27;94468;-59
2023/04/19 09:14:47;;;;;;;1.10;1.00;;;;;;;;;;5121569;27;93702;-59
2023/04/19 09:17:18;;;;;;;1.17;0.87;;;;;;;;;;5122214;27;91908;-59
2023/04/19 09:19:47;;;;;;;0.83;0.83;;;;;;;;;;5122172;27;91348;-59
2023/04/19 09:22:16;;;;;;;1.37;1.00;;;;;;;;;;5121447;27;94381;-59
2023/04/19 09:24:45;;;;;;;3.30;0.90;;;;;;;;;;5121254;27;94249;-59
2023/04/19 09:27:17;;;;;;;0.90;0.80;;;;;;;;;;5121146;27;93093;-59
2023/04/19 09:29:47;;;;;;;1.20;1.10;;;;;;;;;;5121907;27;92079;-59
2023/04/19 09:32:15;;;;;;;0.83;0.67;;;;;;;;;;5091487;27;94289;-59
2023/04/19 09:34:46;;;;;;;0.90;0.90;;;;;;;;;;5079904;27;94039;-59
2023/04/19 09:37:15;;;;;;;1.30;0.70;;;;;;;;;;5079960;27;92086;-59
2023/04/19 09:40:22;;;;;;;1.00;0.87;;;;;;;;;;5080348;27;91997;-59
2023/04/19 09:42:51;;;;;;;0.80;0.80;;;;;;;;;;5080139;27;94103;-59
2023/04/19 09:45:42;;;;;;;0.67;0.53;;;;;;;;;;5096523;27;95499;-61
2023/04/19 09:48:11;;;;;;;1.70;0.90;;;;;;;;;;5092466;27;92092;-59
2023/04/19 09:50:51;;;;;;;1.53;1.00;;;;;;;;;;5100633;27;92895;-59
2023/04/19 09:53:27;;;;;;;0.73;0.63;;;;;;;;;;5096439;27;94042;-59
2023/04/19 09:55:57;;;;;;;1.23;0.70;;;;;;;;;;5092831;27;94974;-60
2023/04/19 09:58:29;;;;;;;0.90;0.90;;;;;;;;;;5099460;27;92049;-61
2023/04/19 10:01:16;;;;;;;3.17;1.00;;;;;;;;;;5095135;27;92080;-60
2023/04/19 10:03:45;;;;;;;1.37;0.90;;;;;;;;;;5084533;27;95078;-58
2023/04/19 10:06:15;;;;;;;0.50;0.50;;;;;;;;;;5081794;27;93794;-61
2023/04/19 10:09:04;;;;;;;0.87;0.87;;;;;;;;;;5082641;27;92090;-60
2023/04/19 10:11:37;;;;;;;0.83;0.80;;;;;;;;;;5084185;27;91242;-61
2023/04/19 10:14:06;;;;;;;0.90;0.90;;;;;;;;;;5082982;27;94078;-61
2023/04/19 10:16:35;;;;;;;5.20;0.80;;;;;;;;;;5082454;27;93770;-61
2023/04/19 10:19:03;;;;;;;0.67;0.67;;;;;;;;;;5082482;27;92698;-61
2023/04/19 10:21:32;;;;;;;0.80;0.80;;;;;;;;;;5083391;27;92047;-61
2023/04/19 10:24:00;;;;;;;1.20;0.80;;;;;;;;;;5083013;27;93917;-61
2023/04/19 10:26:29;;;;;;;1.20;1.10;;;;;;;;;;5082656;27;93917;-61
2023/04/19 10:28:59;;;;;;;1.00;0.90;;;;;;;;;;5083347;27;92087;-61
2023/04/19 10:31:27;;;;;;;1.23;1.13;;;;;;;;;;5083124;27;92106;-61
2023/04/19 10:33:56;;;;;;;1.13;1.10;;;;;;;;;;5082673;27;94422;-61
2023/04/19 10:36:26;;;;;;;0.93;0.80;;;;;;;;;;5082419;27;93971;-61
2023/04/19 10:38:54;;;;;;;0.60;0.60;;;;;;;;;;5083008;27;92718;-61
2023/04/19 10:41:23;;;;;;;0.93;0.93;;;;;;;;;;5083050;27;92019;-61
2023/04/19 10:44:06;;;;;;;0.70;0.70;;;;;;;;;;5081812;27;95202;-61
2023/04/19 10:46:39;;;;;;;0.57;0.40;;;;;;;;;;5082035;27;95123;-61
2023/04/19 10:49:08;;;;;;;1.00;0.70;;;;;;;;;;5082804;27;92008;-61
2023/04/19 10:51:37;;;;;;;0.80;0.73;;;;;;;;;;5082655;27;92102;-61
2023/04/19 10:54:06;;;;;;;0.50;0.50;;;;;;;;;;5082266;27;94056;-59
2023/04/19 10:56:53;;;;;;;1.37;0.97;;;;;;;;;;5081721;27;93950;-59
2023/04/19 10:59:21;;;;;;;2.00;0.70;;;;;;;;;;5082935;27;91798;-59
2023/04/19 11:01:52;;;;;;;0.87;0.53;;;;;;;;;;5083138;27;91329;-59
2023/04/19 11:04:21;;;;;;;0.87;0.70;;;;;;;;;;5082400;27;94262;-60
2023/04/19 11:07:03;;;;;;;0.80;0.80;;;;;;;;;;5081560;27;94049;-60
2023/04/19 11:09:33;;;;;;;1.53;0.60;;;;;;;;;;5081789;27;93018;-61
2023/04/19 11:12:02;;;;;;;0.93;0.70;;;;;;;;;;5081803;27;91909;-61
2023/04/19 11:14:33;;;;;;;4.63;0.80;;;;;;;;;;5081804;27;94131;-61
2023/04/19 11:17:04;;;;;;;0.40;0.40;;;;;;;;;;5082024;27;94175;-61
2023/04/19 11:19:32;;;;;;;2.57;0.93;;;;;;;;;;5082269;27;91932;-61
2023/04/19 11:22:01;;;;;;;0.43;0.43;;;;;;;;;;5082111;27;92068;-61
2023/04/19 11:24:29;;;;;;;0.73;0.60;;;;;;;;;;5081816;27;94324;-60
2023/04/19 11:26:57;;;;;;;0.83;0.50;;;;;;;;;;5082536;27;93692;-60
2023/04/19 11:29:26;;;;;;;0.50;0.50;;;;;;;;;;5082531;27;92077;-60
2023/04/19 11:31:54;;;;;;;0.50;0.50;;;;;;;;;;5082278;27;91888;-60
2023/04/19 11:34:27;;;;;;;0.70;0.70;;;;;;;;;;5081072;27;95120;-61
2023/04/19 11:36:55;;;;;;;1.67;0.40;;;;;;;;;;5081594;27;95151;-60
2023/04/19 11:39:23;;;;;;;0.93;0.60;;;;;;;;;;5082416;27;92173;-60
2023/04/19 11:41:51;;;;;;;2.20;0.80;;;;;;;;;;5081802;27;91866;-60
2023/04/19 11:44:20;;;;;;;0.40;0.40;;;;;;;;;;5080977;27;94122;-60
2023/04/19 11:46:58;;;;;;;0.40;0.40;;;;;;;;;;5081134;27;93957;-61
2023/04/19 11:49:28;;;;;;;1.33;0.60;;;;;;;;;;5082274;27;92136;-60
2023/04/19 11:51:57;;;;;;;0.57;0.57;;;;;;;;;;5082027;27;91355;-60
2023/04/19 11:54:26;;;;;;;0.40;0.40;;;;;;;;;;5081337;27;93383;-60
2023/04/19 11:57:00;;;;;;;0.50;0.40;;;;;;;;;;5081129;27;93846;-60
2023/04/19 11:59:29;;;;;;;0.30;0.30;;;;;;;;;;5080873;27;93018;-60
2023/04/19 12:01:57;;;;;;;0.47;0.47;;;;;;;;;;5081659;27;92010;-60
2023/04/19 12:04:27;;;;;;;1.47;0.63;;;;;;;;;;5081500;27;94196;-60
2023/04/19 12:07:00;;;;;;;0.77;0.50;;;;;;;;;;5081284;27;93657;-60
2023/04/19 12:09:28;;;;;;;0.50;0.50;;;;;;;;;;5081748;27;93080;-60
2023/04/19 12:11:57;;;;;;;0.53;0.47;;;;;;;;;;5081750;27;92113;-60
2023/04/19 12:14:25;;;;;;;0.40;0.40;;;;;;;;;;5081576;27;94018;-60
2023/04/19 12:17:06;;;;;;;2.80;0.70;;;;;;;;;;5081484;27;93945;-60
2023/04/19 12:19:38;;;;;;;0.67;0.67;;;;;;;;;;5081464;27;91990;-60
2023/04/19 12:22:11;;;;;;;1.23;0.40;;;;;;;;;;5081760;27;92019;-61
2023/04/19 12:24:39;;;;;;;0.57;0.57;;;;;;;;;;5080459;27;95158;-60
2023/04/19 12:27:08;;;;;;;0.50;0.40;;;;;;;;;;5081338;27;95226;-60
2023/04/19 12:29:38;;;;;;;0.83;0.47;;;;;;;;;;5081477;27;92050;-60
2023/04/19 12:32:06;;;;;;;0.20;0.20;;;;;;;;;;5082521;27;92071;-60
2023/04/19 12:34:35;;;;;;;0.77;0.33;;;;;;;;;;5080945;27;94109;-60
2023/04/19 12:37:03;;;;;;;2.10;0.33;;;;;;;;;;5081360;27;93911;-60
2023/04/19 12:39:33;;;;;;;0.80;0.40;;;;;;;;;;5081269;27;92004;-60
2023/04/19 12:42:01;;;;;;;0.40;0.40;;;;;;;;;;5081797;27;91382;-60
2023/04/19 12:44:30;;;;;;;0.33;0.33;;;;;;;;;;5080640;27;92996;-60
2023/04/19 12:46:58;;;;;;;0.60;0.60;;;;;;;;;;5080830;27;93950;-60
2023/04/19 12:49:26;;;;;;;0.50;0.50;;;;;;;;;;5080904;27;92698;-60
2023/04/19 12:51:54;;;;;;;0.50;0.50;;;;;;;;;;5080923;27;91933;-60
2023/04/19 12:54:24;;;;;;;1.40;0.60;;;;;;;;;;5080523;27;94040;-60
2023/04/19 12:56:54;;;;;;;0.50;0.50;;;;;;;;;;5080650;27;93983;-60
2023/04/19 12:59:23;;;;;;;0.77;0.53;;;;;;;;;;5080678;27;92064;-60
2023/04/19 13:01:51;;;;;;;0.60;0.60;;;;;;;;;;5080330;27;92093;-61
2023/04/19 13:04:19;;;;;;;0.30;0.30;;;;;;;;;;5080203;27;94045;-61
2023/04/19 13:06:48;;;;;;;0.90;0.80;;;;;;;;;;5080350;27;93698;-61
2023/04/19 13:09:17;;;;;;;0.40;0.30;;;;;;;;;;5081070;27;92100;-60
2023/04/19 13:11:45;;;;;;;0.50;0.50;;;;;;;;;;5080697;27;92132;-61
2023/04/19 13:14:14;;;;;;;0.53;0.27;;;;;;;;;;5079483;27;95249;-61
2023/04/19 13:16:43;;;;;;;0.40;0.40;;;;;;;;;;5080053;27;94775;-60
2023/04/19 13:19:11;;;;;;;0.50;0.50;;;;;;;;;;5081203;27;92066;-60
2023/04/19 13:21:40;;;;;;;0.50;0.40;;;;;;;;;;5079878;27;92090;-60
2023/04/19 13:24:08;;;;;;;0.40;0.40;;;;;;;;;;5079511;27;92990;-61
2023/04/19 13:26:36;;;;;;;0.33;0.33;;;;;;;;;;5080028;27;93295;-61
2023/04/19 13:29:07;;;;;;;0.30;0.30;;;;;;;;;;5080682;27;91781;-61
2023/04/19 13:31:36;;;;;;;0.90;0.70;;;;;;;;;;5080626;27;91236;-60
2023/04/19 13:34:05;;;;;;;0.37;0.37;;;;;;;;;;5079526;27;93762;-60
2023/04/19 13:36:33;;;;;;;0.33;0.27;;;;;;;;;;5078613;27;93834;-61
2023/04/19 13:39:01;;;;;;;0.20;0.20;;;;;;;;;;5079811;27;92960;-60
2023/04/19 13:41:30;;;;;;;0.33;0.30;;;;;;;;;;5080252;27;92080;-60
2023/04/19 13:43:58;;;;;;;0.53;0.40;;;;;;;;;;5079890;27;93926;-60
2023/04/19 13:46:26;;;;;;;0.40;0.40;;;;;;;;;;5079315;27;93910;-60
2023/04/19 13:48:56;;;;;;;0.70;0.50;;;;;;;;;;5079459;27;92149;-60
2023/04/19 13:51:24;;;;;;;0.40;0.40;;;;;;;;;;5080219;27;92060;-60
2023/04/19 13:53:58;;;;;;;0.30;0.30;;;;;;;;;;5079783;27;94193;-60
2023/04/19 13:56:26;;;;;;;0.73;0.60;;;;;;;;;;5079984;27;93929;-60
2023/04/19 13:58:54;;;;;;;0.40;0.40;;;;;;;;;;5080304;27;92107;-60
2023/04/19 14:01:23;;;;;;;0.50;0.50;;;;;;;;;;5079875;27;92037;-61
2023/04/19 14:03:51;;;;;;;0.40;0.40;;;;;;;;;;5078850;27;95439;-61
2023/04/19 14:06:21;;;;;;;0.43;0.43;;;;;;;;;;5078853;27;94491;-61
2023/04/19 14:08:49;;;;;;;1.37;0.47;;;;;;;;;;5079650;27;91995;-59
2023/04/19 14:11:18;;;;;;;0.20;0.20;;;;;;;;;;5079565;27;91898;-59
2023/04/19 14:13:47;;;;;;;0.30;0.30;;;;;;;;;;5079031;27;94191;-61
2023/04/19 14:16:15;;;;;;;0.50;0.50;;;;;;;;;;5079106;27;92813;-59
2023/04/19 14:18:43;;;;;;;0.40;0.40;;;;;;;;;;5079351;27;93389;-59
2023/04/19 14:21:12;;;;;;;0.33;0.30;;;;;;;;;;5079552;27;91289;-59
2023/04/19 14:23:41;;;;;;;0.43;0.40;;;;;;;;;;5078906;27;94125;-59
2023/04/19 14:26:10;;;;;;;0.50;0.50;;;;;;;;;;5079421;27;93852;-59
2023/04/19 14:28:38;;;;;;;0.37;0.37;;;;;;;;;;5079482;27;92810;-59
2023/04/19 14:31:06;;;;;;;0.40;0.40;;;;;;;;;;5079689;27;92114;-61
2023/04/19 14:33:34;;;;;;;0.63;0.63;;;;;;;;;;5079165;27;94238;-59
2023/04/19 14:36:03;;;;;;;0.50;0.50;;;;;;;;;;5078651;27;94011;-59
2023/04/19 14:38:32;;;;;;;0.30;0.30;;;;;;;;;;5079446;27;92072;-59
2023/04/19 14:41:02;;;;;;;0.77;0.43;;;;;;;;;;5079137;27;92084;-60
2023/04/19 14:43:31;;;;;;;0.43;0.43;;;;;;;;;;5077980;27;94133;-61
2023/04/19 14:46:00;;;;;;;0.40;0.40;;;;;;;;;;5079007;27;93922;-60
2023/04/19 14:48:28;;;;;;;0.30;0.30;;;;;;;;;;5082599;27;91943;-60
2023/04/19 14:50:56;;;;;;;0.40;0.40;;;;;;;;;;5082842;27;91919;-60
2023/04/19 14:53:24;;;;;;;0.60;0.60;;;;;;;;;;5082191;27;95051;-61
2023/04/19 14:55:53;;;;;;;0.63;0.47;;;;;;;;;;5082310;27;94916;-60